Time;durP1;ratioP1;P1;durP2;ratioP2;P2;SDS_P1;SDS_P2;PMS_P1;PMS_P2;Temp;Humidity;BMP_temperature;BMP_pressure;BME280_temperature;BME280_humidity;BME280_pressure;Samples;Min_cycle;Max_cycle;Signal;HPM_P1;HPM_P2
2021/08/10 00:01:49;;;;;;;6.45;2.55;;;;;;;24.85;54.53;100217.47;3472939;41;20044;-67
2021/08/10 00:04:15;;;;;;;5.85;2.95;;;;;;;24.56;54.51;100211.22;3463420;41;20046;-67
2021/08/10 00:06:41;;;;;;;6.85;3.17;;;;;;;24.95;53.74;100210.56;3473090;41;20041;-68
2021/08/10 00:09:07;;;;;;;5.70;2.75;;;;;;;24.69;54.37;100211.88;3473054;41;20535;-70
2021/08/10 00:11:32;;;;;;;4.30;2.70;;;;;;;25.05;54.34;100219.25;3473125;41;20129;-70
2021/08/10 00:13:58;;;;;;;7.00;2.63;;;;;;;24.84;54.46;100210.59;3474274;41;20042;-68
2021/08/10 00:16:24;;;;;;;3.58;2.72;;;;;;;24.53;55.02;100204.50;3473914;41;20073;-71
2021/08/10 00:18:50;;;;;;;5.72;2.70;;;;;;;24.58;55.45;100211.94;3473113;41;20130;-67
2021/08/10 00:21:16;;;;;;;4.75;2.42;;;;;;;25.11;53.84;100202.28;3473082;41;20042;-68
2021/08/10 00:23:42;;;;;;;3.85;2.33;;;;;;;24.15;56.46;100204.19;3463618;41;20062;-70
2021/08/10 00:26:08;;;;;;;2.80;2.47;;;;;;;24.92;54.47;100210.78;3463165;41;20042;-69
2021/08/10 00:28:33;;;;;;;4.38;2.75;;;;;;;24.72;55.96;100211.63;3472757;41;20038;-67
2021/08/10 00:30:59;;;;;;;4.70;2.72;;;;;;;24.38;56.87;100212.72;3472801;41;20050;-70
2021/08/10 00:33:27;;;;;;;5.88;2.70;;;;;;;24.81;54.86;100209.13;3463120;41;20038;-68
2021/08/10 00:35:53;;;;;;;4.40;2.85;;;;;;;24.31;55.88;100204.59;3462906;41;20034;-68
2021/08/10 00:38:19;;;;;;;6.00;2.80;;;;;;;24.45;54.76;100201.69;3472787;41;20504;-68
2021/08/10 00:40:45;;;;;;;5.05;2.55;;;;;;;24.66;55.05;100204.31;3472820;41;20038;-68
2021/08/10 00:43:31;;;;;;;2.90;2.60;;;;;;;24.48;54.78;100205.84;3462897;41;20331;-68
2021/08/10 00:45:57;;;;;;;3.92;2.80;;;;;;;24.53;54.99;100203.66;3472666;41;20050;-68
2021/08/10 00:48:22;;;;;;;4.70;2.67;;;;;;;24.43;55.04;100202.75;3472162;41;20170;-69
2021/08/10 00:50:48;;;;;;;3.60;2.60;;;;;;;24.45;55.44;100201.69;3470172;41;20038;-69
2021/08/10 00:53:14;;;;;;;3.70;2.67;;;;;;;24.63;54.25;100199.34;3470932;41;20063;-69
2021/08/10 00:55:40;;;;;;;4.10;2.53;;;;;;;24.43;53.98;100190.59;3471031;41;20042;-67
2021/08/10 00:58:07;;;;;;;4.60;2.90;;;;;;;24.27;55.18;100192.78;3461394;41;20418;-68
2021/08/10 01:00:33;;;;;;;5.10;2.85;;;;;;;24.13;55.30;100187.09;3463539;41;20034;-68
2021/08/10 01:02:59;;;;;;;3.72;2.50;;;;;;;24.15;55.67;100191.19;3473072;41;20038;-69
2021/08/10 01:05:30;;;;;;;2.80;2.55;;;;;;;24.19;56.10;100189.16;3472847;41;20038;-71
2021/08/10 01:08:13;;;;;;;3.17;2.85;;;;;;;23.89;55.89;100193.25;3472772;41;20054;-68
2021/08/10 01:10:57;;;;;;;3.30;2.55;;;;;;;23.80;56.26;100198.34;3472927;41;20046;-67
2021/08/10 01:13:34;;;;;;;7.55;3.22;;;;;;;23.93;56.08;100196.41;3472330;41;20438;-70
2021/08/10 01:16:22;;;;;;;3.13;2.60;;;;;;;24.38;55.17;100197.13;3472716;41;20041;-67
2021/08/10 01:19:15;;;;;;;3.63;2.42;;;;;;;24.40;55.33;100198.66;3472586;41;20436;-68
2021/08/10 01:21:44;;;;;;;5.95;2.90;;;;;;;24.22;54.70;100186.31;3471179;41;20430;-68
2021/08/10 01:24:28;;;;;;;10.35;2.85;;;;;;;24.35;55.55;100192.16;3462416;41;20041;-67
2021/08/10 01:27:13;;;;;;;4.38;2.60;;;;;;;24.11;55.65;100191.56;3472420;41;20038;-68
2021/08/10 01:29:49;;;;;;;11.55;3.53;;;;;;;24.22;56.14;100192.34;3472329;41;20038;-68
2021/08/10 01:32:14;;;;;;;4.28;2.78;;;;;;;23.93;56.25;100189.44;3472682;41;20130;-67
2021/08/10 01:34:48;;;;;;;5.30;3.17;;;;;;;23.91;56.65;100188.75;3472349;41;20055;-68
2021/08/10 01:37:20;;;;;;;4.00;2.65;;;;;;;24.09;55.91;100183.88;3472208;41;20395;-67
2021/08/10 01:39:49;;;;;;;6.03;3.30;;;;;;;23.93;56.08;100179.06;3463243;41;20054;-68
2021/08/10 01:42:16;;;;;;;5.57;2.90;;;;;;;23.72;57.97;100188.56;3472643;41;20054;-69
2021/08/10 01:44:43;;;;;;;5.80;2.60;;;;;;;23.94;57.04;100192.88;3471940;41;20042;-67
2021/08/10 01:47:11;;;;;;;2.95;2.60;;;;;;;23.97;57.07;100184.81;3472217;41;20050;-68
2021/08/10 01:49:38;;;;;;;3.58;2.50;;;;;;;24.18;56.05;100177.13;3472213;41;20074;-68
2021/08/10 01:52:06;;;;;;;3.35;2.80;;;;;;;23.97;57.45;100177.03;3471971;41;20086;-67
2021/08/10 01:54:32;;;;;;;4.72;2.90;;;;;;;23.54;58.15;100173.59;3472011;41;20329;-67
2021/08/10 01:57:00;;;;;;;3.85;2.50;;;;;;;23.79;57.67;100183.72;3472064;41;20038;-69
2021/08/10 01:59:26;;;;;;;5.40;2.75;;;;;;;23.59;59.56;100171.47;3471600;41;20106;-68
2021/08/10 02:01:53;;;;;;;4.25;2.88;;;;;;;23.63;58.64;100172.88;3472191;41;20038;-68
2021/08/10 02:04:20;;;;;;;4.60;2.58;;;;;;;23.74;57.59;100178.88;3472293;41;20038;-69
2021/08/10 02:06:51;;;;;;;3.28;2.75;;;;;;;23.64;58.40;100177.13;3463008;41;20046;-69
2021/08/10 02:09:19;;;;;;;5.55;2.83;;;;;;;23.69;57.61;100177.59;3472215;41;20034;-69
2021/08/10 02:11:47;;;;;;;4.35;2.78;;;;;;;23.60;58.42;100170.50;3463042;41;20038;-68
2021/08/10 02:19:23;;;;;;;4.35;2.80;;;;;;;24.01;56.22;100174.06;3469973;41;20134;-69
2021/08/10 02:21:51;;;;;;;2.90;2.60;;;;;;;23.88;56.40;100162.19;3469375;41;20383;-71
2021/08/10 02:24:25;;;;;;;3.65;2.67;;;;;;;23.58;57.48;100173.25;3472419;41;20118;-68
2021/08/10 02:26:59;;;;;;;4.22;2.72;;;;;;;23.86;57.39;100161.50;3472195;41;20118;-68
2021/08/10 02:29:31;;;;;;;4.53;2.78;;;;;;;23.58;58.27;100169.81;3472042;41;20035;-69
2021/08/10 02:31:57;;;;;;;4.45;2.50;;;;;;;23.88;58.16;100170.00;3472089;41;20078;-68
2021/08/10 02:34:35;;;;;;;5.82;2.90;;;;;;;23.87;58.11;100166.56;3463115;41;20034;-67
2021/08/10 02:37:01;;;;;;;4.53;2.60;;;;;;;23.99;57.36;100172.53;3464353;41;20034;-68
2021/08/10 02:39:29;;;;;;;4.85;2.97;;;;;;;23.89;57.71;100169.84;3473304;41;20050;-68
2021/08/10 02:41:56;;;;;;;3.42;2.80;;;;;;;23.54;59.42;100168.41;3464120;41;20062;-68
2021/08/10 02:44:25;;;;;;;4.65;3.05;;;;;;;24.00;57.55;100164.66;3472151;41;20046;-67
2021/08/10 02:46:51;;;;;;;5.07;2.90;;;;;;;23.70;57.60;100169.69;3473678;41;20060;-69
2021/08/10 02:49:16;;;;;;;176.07;10.77;;;;;;;23.51;59.14;100174.66;3473852;41;20314;-69
2021/08/10 02:51:42;;;;;;;13.40;3.50;;;;;;;23.43;58.68;100171.84;3473384;41;20049;-68
2021/08/10 02:54:08;;;;;;;3.92;2.88;;;;;;;23.20;59.02;100176.19;3464603;41;20045;-68
2021/08/10 02:56:41;;;;;;;4.13;2.60;;;;;;;23.65;58.67;100165.81;3473777;41;20049;-68
2021/08/10 02:59:16;;;;;;;3.65;2.83;;;;;;;23.85;58.13;100170.22;3473959;41;20042;-68
2021/08/10 03:02:06;;;;;;;5.07;2.97;;;;;;;23.20;59.24;100165.81;3474427;41;20048;-69
2021/08/10 03:04:36;;;;;;;5.13;2.83;;;;;;;23.60;58.87;100167.91;3464902;41;20030;-67
2021/08/10 03:07:04;;;;;;;6.05;3.00;;;;;;;23.35;59.54;100171.63;3474444;41;20049;-68
2021/08/10 03:09:32;;;;;;;3.90;2.50;;;;;;;23.58;58.60;100169.81;3464327;41;20074;-69
2021/08/10 03:12:01;;;;;;;3.88;2.75;;;;;;;23.52;59.50;100175.47;3465510;41;20049;-69
2021/08/10 03:14:29;;;;;;;5.05;2.85;;;;;;;23.43;60.13;100182.25;3473827;41;20049;-69
2021/08/10 03:16:58;;;;;;;5.82;3.10;;;;;;;23.80;58.92;100181.00;3474117;41;20045;-69
2021/08/10 03:24:25;;;;;;;3.25;2.95;;;;;;;23.69;60.31;100193.97;3471828;41;20807;-67
2021/08/10 03:26:54;;;;;;;4.82;3.50;;;;;;;23.60;60.32;100202.50;3463100;41;20082;-69
2021/08/10 03:29:23;;;;;;;5.93;3.20;;;;;;;23.13;61.77;100205.31;3464583;41;20056;-68
2021/08/10 03:31:50;;;;;;;5.75;4.03;;;;;;;23.27;60.25;100203.31;3464321;41;20049;-68
2021/08/10 03:34:17;;;;;;;15.98;5.15;;;;;;;23.03;61.05;100205.19;3465176;41;20030;-69
2021/08/10 03:36:44;;;;;;;24.02;6.50;;;;;;;23.20;60.79;100207.31;3454666;41;20066;-68
2021/08/10 03:39:12;;;;;;;27.58;7.85;;;;;;;22.99;60.41;100203.78;3463762;41;20126;-68
2021/08/10 03:41:38;;;;;;;17.38;6.93;;;;;;;23.02;61.19;100203.53;3463643;41;20042;-68
2021/08/10 03:44:04;;;;;;;18.38;7.32;;;;;;;23.13;60.31;100206.16;3465061;41;20126;-70
2021/08/10 03:46:31;;;;;;;17.80;7.57;;;;;;;22.71;61.98;100204.19;3465450;41;20082;-68
2021/08/10 03:48:58;;;;;;;18.42;7.13;;;;;;;23.15;61.29;100208.63;3464136;41;20102;-68
2021/08/10 03:51:26;;;;;;;18.55;6.82;;;;;;;23.34;61.05;100215.84;3466339;41;20439;-69
2021/08/10 03:53:53;;;;;;;15.25;6.25;;;;;;;23.38;60.12;100215.50;3465843;41;20070;-69
2021/08/10 03:56:23;;;;;;;18.08;6.22;;;;;;;23.00;61.37;100220.13;3469188;41;20031;-69
2021/08/10 03:58:52;;;;;;;11.27;5.20;;;;;;;23.49;60.15;100219.88;3478154;41;20038;-69
2021/08/10 04:01:20;;;;;;;11.68;5.65;;;;;;;23.11;61.57;100217.56;3467129;41;20045;-68
2021/08/10 04:03:48;;;;;;;9.57;5.53;;;;;;;23.33;60.61;100216.81;3462609;41;20091;-69
2021/08/10 04:06:14;;;;;;;10.07;5.63;;;;;;;22.93;62.06;100230.16;3462433;41;20065;-68
2021/08/10 04:08:42;;;;;;;10.75;5.50;;;;;;;23.40;60.88;100224.00;3473056;41;20042;-69
2021/08/10 04:11:10;;;;;;;9.68;5.65;;;;;;;22.94;61.91;100224.03;3466373;41;20331;-66
2021/08/10 04:13:36;;;;;;;11.25;5.53;;;;;;;23.07;61.61;100223.94;3471042;41;20414;-68
2021/08/10 04:16:05;;;;;;;10.18;5.78;;;;;;;22.47;63.66;100221.50;3471238;41;20141;-67
2021/08/10 04:18:34;;;;;;;10.15;5.10;;;;;;;23.25;60.54;100215.56;3462834;41;20049;-67
2021/08/10 04:21:00;;;;;;;9.93;4.35;;;;;;;23.08;62.13;100215.19;3470981;41;20041;-66
2021/08/10 04:23:25;;;;;;;11.80;4.45;;;;;;;22.97;62.57;100213.44;3461962;41;20051;-66
2021/08/10 04:25:52;;;;;;;9.63;4.07;;;;;;;23.06;60.81;100207.53;3469954;41;20303;-67
2021/08/10 04:28:18;;;;;;;8.27;4.20;;;;;;;23.16;60.96;100216.28;3468679;41;20043;-67
2021/08/10 04:30:46;;;;;;;6.63;4.00;;;;;;;22.83;60.89;100218.81;3463319;41;20429;-66
2021/08/10 04:33:12;;;;;;;7.13;3.83;;;;;;;23.06;61.03;100206.72;3453874;41;20043;-68
2021/08/10 04:35:38;;;;;;;8.88;3.67;;;;;;;23.18;60.90;100211.81;3454621;41;20409;-67
2021/08/10 04:38:03;;;;;;;10.23;4.00;;;;;;;23.37;60.18;100210.44;3454325;41;20049;-66
2021/08/10 04:40:30;;;;;;;5.90;3.78;;;;;;;23.38;60.58;100210.31;3464391;41;20424;-69
2021/08/10 04:42:56;;;;;;;8.50;3.70;;;;;;;23.44;60.51;100204.63;3455519;41;20047;-67
2021/08/10 04:45:22;;;;;;;6.25;3.70;;;;;;;23.58;59.33;100212.19;3455144;41;20062;-69
2021/08/10 04:47:48;;;;;;;13.02;4.28;;;;;;;23.83;59.51;100205.88;3473545;41;20350;-69
2021/08/10 04:50:14;;;;;;;6.57;3.90;;;;;;;23.91;59.79;100206.09;3466581;41;20058;-68
2021/08/10 04:52:43;;;;;;;8.10;4.20;;;;;;;24.39;58.57;100209.16;3465743;41;20046;-69
2021/08/10 04:57:38;;;;;;;8.18;4.10;;;;;;;24.36;58.99;100215.47;3484438;41;20074;-70
2021/08/10 05:00:06;;;;;;;10.88;4.88;;;;;;;24.67;57.08;100217.19;3487228;41;20038;-68
2021/08/10 05:02:35;;;;;;;8.93;4.57;;;;;;;24.74;56.30;100220.97;3476157;41;20028;-71
2021/08/10 05:05:01;;;;;;;7.47;4.28;;;;;;;25.05;55.82;100219.25;3488702;41;20124;-68
2021/08/10 05:07:27;;;;;;;8.18;4.28;;;;;;;25.05;56.16;100219.25;3482476;41;20385;-68
2021/08/10 05:09:53;;;;;;;8.88;4.32;;;;;;;24.93;56.60;100218.50;3473347;41;20121;-68
2021/08/10 05:12:19;;;;;;;15.00;4.18;;;;;;;25.48;55.05;100212.06;3482940;41;20445;-70
2021/08/10 05:14:45;;;;;;;12.50;4.50;;;;;;;25.89;54.83;100215.47;3482216;41;20102;-68
2021/08/10 05:17:13;;;;;;;14.80;4.00;;;;;;;25.93;53.30;100222.06;3482586;41;20045;-69
2021/08/10 05:19:38;;;;;;;9.23;3.50;;;;;;;25.65;53.61;100214.03;3478515;41;20041;-70
2021/08/10 05:22:04;;;;;;;6.03;3.42;;;;;;;26.22;53.66;100220.34;3487552;41;20045;-69
2021/08/10 05:24:29;;;;;;;7.85;4.40;;;;;;;25.60;54.01;100221.44;3491230;41;20380;-71
2021/08/10 05:26:55;;;;;;;8.10;3.47;;;;;;;25.99;53.06;100224.94;3483760;41;20053;-70
2021/08/10 05:29:21;;;;;;;5.07;3.65;;;;;;;26.17;52.83;100231.19;3485749;41;20480;-68
2021/08/10 05:31:47;;;;;;;6.15;3.63;;;;;;;26.61;51.52;100229.81;3479803;41;20101;-70
2021/08/10 05:34:13;;;;;;;6.55;3.83;;;;;;;26.86;50.72;100238.91;3487142;41;20041;-69
2021/08/10 05:36:39;;;;;;;11.95;6.68;;;;;;;26.63;51.02;100246.97;3487596;41;20038;-71
2021/08/10 05:39:05;;;;;;;12.15;5.75;;;;;;;27.07;50.72;100252.56;3486959;41;20046;-70
2021/08/10 05:41:31;;;;;;;9.82;4.60;;;;;;;27.02;49.55;100250.38;3486876;41;20357;-71
2021/08/10 05:43:56;;;;;;;13.85;4.78;;;;;;;27.26;49.70;100242.91;3489045;41;20051;-71
2021/08/10 05:46:22;;;;;;;8.93;4.78;;;;;;;27.19;49.32;100246.22;3483916;41;20045;-68
2021/08/10 05:48:48;;;;;;;11.27;5.15;;;;;;;27.27;48.85;100246.34;3482973;41;20494;-71
2021/08/10 05:51:13;;;;;;;8.23;5.28;;;;;;;27.16;49.75;100251.72;3476326;41;20817;-67
2021/08/10 05:53:39;;;;;;;19.85;5.45;;;;;;;27.85;47.80;100249.56;3481579;41;20053;-69
2021/08/10 05:56:05;;;;;;;8.05;5.10;;;;;;;27.30;48.35;100254.72;3480696;41;20484;-70
2021/08/10 05:58:30;;;;;;;10.35;4.70;;;;;;;28.00;47.94;100250.72;3480644;41;20046;-68
2021/08/10 06:00:56;;;;;;;8.27;4.60;;;;;;;27.98;47.31;100253.50;3463293;41;20410;-67
2021/08/10 06:03:22;;;;;;;11.80;4.45;;;;;;;28.24;47.26;100249.19;3471808;41;20082;-70
2021/08/10 06:05:48;;;;;;;12.05;4.78;;;;;;;28.52;46.43;100244.69;3471981;41;20318;-70
2021/08/10 06:08:14;;;;;;;6.50;4.53;;;;;;;28.52;46.77;100243.88;3471818;41;20042;-68
2021/08/10 06:10:40;;;;;;;8.65;4.70;;;;;;;28.84;45.71;100244.16;3472996;41;20042;-68
2021/08/10 06:13:06;;;;;;;9.07;4.50;;;;;;;28.44;45.48;100242.00;3472976;41;20053;-68
2021/08/10 06:15:32;;;;;;;6.35;4.20;;;;;;;28.61;44.94;100248.22;3473024;41;20062;-68
2021/08/10 06:17:58;;;;;;;7.47;4.65;;;;;;;28.55;45.05;100254.88;3464251;41;20506;-68
2021/08/10 06:20:23;;;;;;;10.73;4.60;;;;;;;28.21;46.35;100251.25;3473389;41;20034;-69
2021/08/10 06:22:49;;;;;;;13.02;4.60;;;;;;;28.63;45.72;100257.56;3463600;41;20146;-67
2021/08/10 06:25:15;;;;;;;7.53;4.88;;;;;;;29.07;44.13;100242.66;3474158;41;20051;-67
2021/08/10 06:27:41;;;;;;;5.68;4.30;;;;;;;29.19;43.88;100244.09;3472860;41;20046;-68
2021/08/10 06:30:09;;;;;;;7.15;4.28;;;;;;;29.26;44.69;100234.63;3466010;41;20038;-69
2021/08/10 06:32:35;;;;;;;10.20;4.20;;;;;;;29.36;44.15;100230.09;3467458;41;20041;-68
2021/08/10 06:35:01;;;;;;;8.88;3.95;;;;;;;29.58;43.23;100218.22;3476065;41;20467;-67
2021/08/10 06:37:27;;;;;;;18.13;4.45;;;;;;;29.97;44.78;100221.97;3475077;41;20038;-68
2021/08/10 06:39:52;;;;;;;8.00;4.10;;;;;;;29.33;43.85;100221.72;3476199;41;20098;-69
2021/08/10 06:42:19;;;;;;;7.05;4.20;;;;;;;30.16;42.54;100220.84;3478892;41;20045;-70
2021/08/10 06:44:46;;;;;;;8.65;4.22;;;;;;;30.38;42.15;100239.47;3480449;41;20130;-69
2021/08/10 06:47:11;;;;;;;5.30;4.07;;;;;;;30.84;42.26;100231.91;3473703;41;20046;-69
2021/08/10 06:49:38;;;;;;;7.10;4.25;;;;;;;29.63;43.41;100242.97;3473324;41;20046;-68
2021/08/10 06:52:06;;;;;;;12.73;4.32;;;;;;;30.59;41.68;100237.16;3472661;41;20054;-70
2021/08/10 06:54:32;;;;;;;7.30;3.53;;;;;;;30.60;41.95;100233.53;3472610;41;20046;-71
2021/08/10 06:57:06;;;;;;;7.18;4.10;;;;;;;30.49;40.95;100233.88;3476237;41;20043;-70
2021/08/10 06:59:33;;;;;;;6.57;3.78;;;;;;;31.15;39.99;100225.78;3482663;41;20124;-70
2021/08/10 07:02:00;;;;;;;10.05;3.88;;;;;;;31.44;40.30;100227.81;3478894;41;20061;-71
2021/08/10 07:04:25;;;;;;;7.22;4.30;;;;;;;30.46;41.22;100226.34;3485588;41;20033;-71
2021/08/10 07:06:52;;;;;;;6.85;3.42;;;;;;;31.34;39.42;100217.47;3485812;41;20353;-69
2021/08/10 07:09:18;;;;;;;7.30;3.83;;;;;;;31.66;40.46;100215.72;3485595;41;20038;-72
2021/08/10 07:11:44;;;;;;;6.97;3.70;;;;;;;31.17;39.57;100204.56;3484431;41;20060;-70
2021/08/10 07:14:13;;;;;;;5.25;3.72;;;;;;;31.62;39.34;100204.75;3481946;41;20049;-69
2021/08/10 07:16:39;;;;;;;9.75;4.00;;;;;;;31.13;40.17;100204.09;3481780;41;20284;-70
2021/08/10 07:19:05;;;;;;;6.25;3.35;;;;;;;31.50;39.21;100196.41;3482424;41;20038;-70
2021/08/10 07:21:31;;;;;;;9.75;3.55;;;;;;;32.27;38.74;100195.47;3475663;41;20038;-71
2021/08/10 07:23:56;;;;;;;8.40;3.83;;;;;;;31.87;39.43;100187.00;3485115;41;20033;-69
2021/08/10 07:26:22;;;;;;;9.20;3.75;;;;;;;32.40;37.83;100190.44;3484869;41;20425;-70
2021/08/10 07:28:48;;;;;;;9.80;3.72;;;;;;;32.16;38.25;100190.63;3486751;41;20038;-75
2021/08/10 07:31:16;;;;;;;6.18;3.22;;;;;;;32.32;38.26;100190.50;3491602;41;20048;-70
2021/08/10 07:33:49;;;;;;;4.20;3.25;;;;;;;32.28;38.04;100201.56;3493318;41;20744;-68
2021/08/10 07:36:15;;;;;;;10.52;3.67;;;;;;;32.29;38.24;100209.25;3485735;41;20049;-68
2021/08/10 07:41:16;;;;;;;6.72;3.75;;;;;;;33.01;36.63;100217.56;3482001;41;20134;-67
2021/08/10 07:43:42;;;;;;;6.57;3.90;;;;;;;33.22;36.49;100220.28;3481321;41;20176;-68
2021/08/10 07:46:09;;;;;;;7.57;3.72;;;;;;;32.64;36.49;100226.31;3482149;41;20045;-70
2021/08/10 07:48:34;;;;;;;9.68;4.00;;;;;;;32.23;38.26;100219.69;3482194;41;20061;-68
2021/08/10 07:51:00;;;;;;;7.60;3.70;;;;;;;32.97;36.80;100218.91;3484282;41;20046;-68
2021/08/10 07:53:26;;;;;;;8.70;4.00;;;;;;;33.41;35.75;100216.28;3489791;41;20030;-70
2021/08/10 07:55:53;;;;;;;7.65;3.70;;;;;;;33.42;35.31;100208.16;3485949;41;20044;-70
2021/08/10 07:58:18;;;;;;;7.38;3.90;;;;;;;33.82;35.38;100212.13;3486926;41;20480;-70
2021/08/10 08:00:46;;;;;;;9.82;3.67;;;;;;;33.77;35.41;100204.78;3489373;41;20988;-70
2021/08/10 08:05:47;;;;;;;8.45;3.95;;;;;;;33.34;34.99;100183.72;3480000;41;20062;-72
2021/08/10 08:31:40;;;;;;;9.10;4.40;;;;;;;35.13;33.10;100187.66;1244212;23;20197;-77
2021/08/10 08:44:25;;;;;;;7.88;4.22;;;;;;;34.86;33.90;100177.94;3474518;41;20106;-71
2021/08/10 08:46:52;;;;;;;7.65;4.32;;;;;;;34.83;33.06;100165.06;3481036;41;20386;-69
2021/08/10 08:49:23;;;;;;;9.48;3.78;;;;;;;35.47;32.12;100168.28;3482079;41;20348;-72
2021/08/10 08:59:17;;;;;;;7.75;4.35;;;;;;;35.48;33.02;100149.56;3490977;41;20069;-71
2021/08/10 09:01:43;;;;;;;7.28;4.00;;;;;;;35.57;32.79;100153.69;3490009;41;20037;-71
2021/08/10 09:04:09;;;;;;;11.40;4.28;;;;;;;36.06;32.06;100155.19;3489841;41;20294;-72
2021/08/10 09:06:37;;;;;;;8.15;4.00;;;;;;;35.20;32.64;100154.09;3488389;41;20053;-71
2021/08/10 09:09:26;;;;;;;5.30;4.10;;;;;;;36.16;31.52;100150.31;3488679;41;20037;-73
2021/08/10 09:11:54;;;;;;;7.80;4.20;;;;;;;36.35;31.43;100149.50;3457802;41;20470;-71
2021/08/10 09:14:24;;;;;;;8.52;4.15;;;;;;;36.23;30.77;100151.13;3457812;41;20042;-71
2021/08/10 09:17:09;;;;;;;8.90;4.22;;;;;;;36.43;30.81;100146.66;3458709;41;20055;-71
2021/08/10 09:19:49;;;;;;;4.95;4.03;;;;;;;35.84;30.56;100141.28;3449141;41;20127;-71
2021/08/10 09:22:22;;;;;;;8.70;4.30;;;;;;;35.65;31.00;100137.59;3457608;41;20031;-71
2021/08/10 09:25:00;;;;;;;5.97;4.57;;;;;;;35.50;31.54;100139.59;3458987;41;20042;-73
2021/08/10 09:27:28;;;;;;;8.60;4.32;;;;;;;35.02;31.36;100132.69;3460615;41;20047;-71
2021/08/10 09:29:55;;;;;;;5.35;3.70;;;;;;;35.27;31.01;100139.09;3475790;41;20321;-74
2021/08/10 09:32:21;;;;;;;5.82;4.63;;;;;;;35.14;30.43;100132.94;3489754;41;20049;-70
2021/08/10 09:35:14;;;;;;;4.78;4.18;;;;;;;35.96;29.49;100129.13;3490456;41;20041;-72
2021/08/10 09:37:40;;;;;;;8.35;4.60;;;;;;;36.22;29.53;100130.94;3489986;41;20053;-71
2021/08/10 09:40:27;;;;;;;10.00;4.78;;;;;;;36.47;29.53;100131.97;3489949;41;20034;-73
2021/08/10 09:42:53;;;;;;;6.63;4.53;;;;;;;36.62;29.75;100129.91;3490706;41;20042;-73
2021/08/10 09:45:18;;;;;;;6.57;4.68;;;;;;;36.96;30.12;100121.69;3489764;41;20057;-71
2021/08/10 09:47:44;;;;;;;7.55;4.32;;;;;;;35.93;29.70;100116.28;3489838;41;20045;-71
2021/08/10 09:50:26;;;;;;;10.00;4.40;;;;;;;35.72;30.47;100108.47;3492513;41;20432;-72
2021/08/10 09:52:53;;;;;;;10.77;4.28;;;;;;;37.44;28.60;100105.34;3492859;41;20037;-72
2021/08/10 09:55:20;;;;;;;6.65;4.40;;;;;;;36.79;29.92;100114.34;3492203;41;20462;-72
2021/08/10 10:01:24;;;;;;;6.15;5.05;;;;;;;35.41;31.12;100106.38;3492554;41;20133;-72
2021/08/10 10:04:26;;;;;;;8.55;4.90;;;;;;;35.23;30.99;100105.28;3491230;41;20761;-77
2021/08/10 10:06:57;;;;;;;7.97;4.80;;;;;;;35.20;31.31;100103.84;3492450;41;20037;-71
2021/08/10 10:09:25;;;;;;;7.70;4.80;;;;;;;35.18;31.26;100102.44;3501073;41;20037;-71
2021/08/10 10:11:53;;;;;;;6.53;5.15;;;;;;;35.50;31.41;100102.53;3492627;41;20045;-73
2021/08/10 10:14:21;;;;;;;7.72;4.72;;;;;;;35.47;30.87;100097.66;3492131;41;20042;-72
2021/08/10 10:16:49;;;;;;;7.15;4.70;;;;;;;35.79;30.46;100105.84;3500124;41;20048;-72
2021/08/10 10:19:17;;;;;;;5.30;4.80;;;;;;;36.30;29.18;100102.41;3492795;41;20493;-72
2021/08/10 10:21:48;;;;;;;6.63;5.20;;;;;;;35.43;31.23;100098.22;3493156;41;20125;-71
2021/08/10 10:24:17;;;;;;;9.02;4.93;;;;;;;35.10;31.63;100100.75;3493272;41;20101;-72
2021/08/10 10:27:00;;;;;;;7.10;4.85;;;;;;;35.96;30.80;100104.44;3494095;41;20073;-72
2021/08/10 10:29:27;;;;;;;6.43;4.75;;;;;;;36.58;29.00;100099.53;3493523;41;20373;-75
2021/08/10 10:31:54;;;;;;;6.68;4.88;;;;;;;37.04;28.08;100097.53;3494236;41;20333;-74
2021/08/10 10:34:20;;;;;;;6.53;4.63;;;;;;;37.67;27.67;100092.31;3501195;41;20048;-72
2021/08/10 10:36:48;;;;;;;7.30;5.05;;;;;;;37.50;28.18;100086.72;3493125;41;20042;-72
2021/08/10 10:39:27;;;;;;;9.68;4.90;;;;;;;38.25;28.07;100091.09;3493130;41;20037;-72
2021/08/10 10:41:56;;;;;;;7.15;5.30;;;;;;;37.29;28.82;100085.19;3492793;41;20049;-72
2021/08/10 10:44:41;;;;;;;5.72;4.90;;;;;;;36.69;29.36;100084.84;3493190;41;20045;-71
2021/08/10 10:47:38;;;;;;;6.00;5.18;;;;;;;37.63;29.09;100083.16;3493048;41;20042;-72
2021/08/10 10:50:05;;;;;;;6.40;5.32;;;;;;;36.73;28.52;100080.72;3462970;41;20034;-72
2021/08/10 10:52:34;;;;;;;6.20;4.85;;;;;;;37.75;28.19;100073.47;3454891;41;20075;-72
2021/08/10 10:55:02;;;;;;;8.55;5.18;;;;;;;37.35;28.66;100068.44;3463163;41;20191;-74
2021/08/10 10:57:33;;;;;;;8.43;5.25;;;;;;;37.72;26.74;100073.88;3462958;41;20045;-71
2021/08/10 11:00:07;;;;;;;6.78;5.38;;;;;;;38.07;25.81;100067.09;3463510;41;20035;-72
2021/08/10 11:08:33;;;;;;;5.93;5.13;;;;;;;38.33;26.89;100066.84;3510062;40;21157;-72
2021/08/10 11:10:59;;;;;;;6.28;5.03;;;;;;;38.58;26.75;100050.84;3482830;41;20055;-72
2021/08/10 11:13:24;;;;;;;6.45;5.13;;;;;;;38.24;27.86;100044.25;3483606;41;20046;-72
2021/08/10 11:15:50;;;;;;;13.68;5.80;;;;;;;38.08;26.12;100047.47;3483493;41;20042;-73
2021/08/10 11:18:15;;;;;;;6.97;5.50;;;;;;;38.24;25.78;100049.56;3480706;41;20050;-72
2021/08/10 11:20:52;;;;;;;7.40;5.38;;;;;;;38.12;26.49;100038.00;3481636;41;20038;-72
2021/08/10 11:23:21;;;;;;;9.27;5.40;;;;;;;38.74;25.52;100039.63;3480740;41;20565;-72
2021/08/10 11:25:51;;;;;;;6.65;5.22;;;;;;;37.60;26.71;100047.22;3481552;41;20045;-72
2021/08/10 11:28:32;;;;;;;6.22;5.55;;;;;;;37.47;27.91;100039.38;3481627;41;20045;-72
2021/08/10 11:30:59;;;;;;;8.77;6.10;;;;;;;36.94;27.01;100038.03;3481982;41;20402;-72
2021/08/10 11:33:35;;;;;;;7.55;6.00;;;;;;;36.83;27.57;100031.50;3482622;41;20094;-71
2021/08/10 11:36:10;;;;;;;6.65;6.00;;;;;;;37.16;27.69;100026.06;3481999;41;20655;-71
2021/08/10 11:38:48;;;;;;;8.57;5.88;;;;;;;38.01;25.90;100028.13;3482612;41;20038;-73
2021/08/10 11:41:15;;;;;;;7.28;5.90;;;;;;;38.70;25.97;100023.31;3482274;41;20042;-72
2021/08/10 11:43:49;;;;;;;7.35;5.43;;;;;;;38.13;26.49;100019.19;3483658;41;20030;-72
2021/08/10 11:46:22;;;;;;;7.72;5.70;;;;;;;37.64;26.31;100010.44;3483016;41;20314;-73
2021/08/10 11:49:08;;;;;;;7.43;5.72;;;;;;;38.41;26.15;100013.38;3483648;41;20091;-73
2021/08/10 11:51:39;;;;;;;8.43;6.43;;;;;;;38.09;25.50;100011.91;3483362;41;20113;-72
2021/08/10 11:54:20;;;;;;;7.25;5.88;;;;;;;38.43;24.83;100003.34;3483050;41;20038;-74
2021/08/10 11:56:54;;;;;;;6.55;5.60;;;;;;;39.66;23.77;100002.69;3481115;41;20037;-71
2021/08/10 11:59:24;;;;;;;6.95;5.90;;;;;;;39.30;23.82;99999.38;3483363;41;20118;-72
2021/08/10 12:01:51;;;;;;;9.80;5.88;;;;;;;38.66;24.34;99990.22;3483997;41;20045;-72
2021/08/10 12:04:28;;;;;;;7.32;5.60;;;;;;;38.96;24.35;99985.69;3483575;41;20107;-74
2021/08/10 12:06:55;;;;;;;6.95;5.80;;;;;;;39.30;23.97;99988.72;3484315;41;20090;-74
2021/08/10 12:09:22;;;;;;;6.47;5.88;;;;;;;39.44;24.32;99985.59;3483259;41;20660;-73
2021/08/10 12:11:56;;;;;;;8.13;6.10;;;;;;;38.55;24.47;99976.84;3482303;41;20031;-72
2021/08/10 12:14:32;;;;;;;6.28;5.68;;;;;;;38.60;25.10;99972.47;3474402;41;20095;-72
2021/08/10 12:17:12;;;;;;;6.45;5.82;;;;;;;38.67;25.03;99965.22;3474238;41;20035;-73
2021/08/10 12:19:46;;;;;;;8.75;6.20;;;;;;;39.73;23.81;99965.28;3474376;41;20062;-72
2021/08/10 12:22:20;;;;;;;8.77;5.80;;;;;;;39.50;23.75;99959.91;3475284;41;20433;-72
2021/08/10 12:24:47;;;;;;;8.10;5.47;;;;;;;39.36;23.66;99955.84;3482080;41;20047;-72
2021/08/10 12:27:17;;;;;;;6.15;5.55;;;;;;;38.98;25.04;99949.00;3475243;41;20035;-73
2021/08/10 12:29:48;;;;;;;5.80;5.20;;;;;;;38.91;25.75;99953.63;3475430;41;20055;-73
2021/08/10 12:32:28;;;;;;;7.88;6.03;;;;;;;38.58;26.11;99945.28;3475572;41;20095;-72
2021/08/10 12:34:56;;;;;;;6.88;5.80;;;;;;;38.58;26.10;99955.91;3474786;41;20035;-72
2021/08/10 12:37:33;;;;;;;8.70;5.88;;;;;;;39.08;24.95;99945.00;3474771;41;20104;-75
2021/08/10 12:40:00;;;;;;;7.30;6.30;;;;;;;37.81;26.04;99945.16;3482682;41;20039;-72
2021/08/10 12:42:28;;;;;;;6.45;5.80;;;;;;;37.49;25.38;99933.78;3474997;41;20054;-73